Queen Of Nanaimo — VCNX — position and weather

sailwx.info

Track history (hours):
 
Tides and Currents Weather Stations Pressure Air Temp Water Temp Dewpoint Dewpoint Depression Visibility Wind Speed Wind Dir Waves Ship Positions

Queen Of Nanaimo

Last reported at 2014-Sep-02 23:33 UTC. Time now 2014-Sep-03 00:11 UTC.
Position N 48°49' W 123°20'.

Length 130 m; draft 4 m.

Type: Ship. MMSI: 316001254.

Date/timePositionNaut miles runAvg speedWind from/ knotsBaromVisibWave heightAir tempDewpointWater temp
2014-Sep-02 23:33N 48°49' W 123°20'3 3.0
2014-Sep-02 22:33N 48°50' W 123°25'2 0.8
2014-Sep-02 20:20N 48°51' W 123°27'6 7.1
2014-Sep-02 19:29N 48°48' W 123°19'4 4.7
2014-Sep-02 18:33N 48°52' W 123°18'9 8.8
2014-Sep-02 17:33N 48°59' W 123°10'2 1.9
2014-Sep-02 16:33N 49°00' W 123°08'1110.6
2014-Sep-02 15:33N 48°53' W 123°19'3 3.2
2014-Sep-02 14:33N 48°50' W 123°20'4 3.9
2014-Sep-02 13:27N 48°51' W 123°26'1 0.1
2014-Sep-02 07:06N 48°51' W 123°25'713.9
2014-Sep-02 06:33N 48°54' W 123°16'8 7.9
2014-Sep-02 05:34N 49°00' W 123°08'1010.4
2014-Sep-02 04:34N 48°53' W 123°18'2 2.1
2014-Sep-02 03:34N 48°51' W 123°20'4 4.0
2014-Sep-02 02:33N 48°54' W 123°16'8 8.4
2014-Sep-02 01:34N 49°00' W 123°08'10 9.6
2014-Sep-02 00:33N 48°53' W 123°18'5 4.6
2014-Sep-01 23:32N 48°51' W 123°24'1 1.1
2014-Sep-01 22:30N 48°51' W 123°25'1314.0
2014-Sep-01 21:33N 48°59' W 123°10'2 1.7
2014-Sep-01 20:34N 48°57' W 123°09'8 7.8
2014-Sep-01 19:33N 48°53' W 123°19'2 1.8
2014-Sep-01 18:28N 48°51' W 123°20'7 7.8
2014-Sep-01 17:34N 48°57' W 123°14'6 5.6
2014-Sep-01 16:33N 49°00' W 123°08'1110.7
2014-Sep-01 15:34N 48°53' W 123°19'5 4.5
2014-Sep-01 14:22N 48°51' W 123°27'0 0.0
2014-Sep-01 08:29N 48°51' W 123°27'0 0.0
2014-Sep-01 07:31N 48°51' W 123°27'5 4.9
2014-Sep-01 06:33N 48°52' W 123°20'1211.8
2014-Sep-01 05:34N 49°00' W 123°08'9 9.1
2014-Sep-01 04:34N 48°54' W 123°17'3 3.1
2014-Sep-01 03:30N 48°51' W 123°20'4 4.3
2014-Sep-01 02:33N 48°54' W 123°17'8 8.4
2014-Sep-01 01:33N 49°00' W 123°08'10 9.7
2014-Sep-01 00:34N 48°53' W 123°18'5 5.3
2014-Aug-31 23:33N 48°51' W 123°25'0 0.4
2014-Aug-31 22:15N 48°51' W 123°25'1013.9
2014-Aug-31 21:33N 48°57' W 123°14'5 5.0
2014-Aug-31 20:33N 48°60' W 123°08'1010.1
2014-Aug-31 19:34N 48°53' W 123°19'2 1.8
2014-Aug-31 18:30N 48°51' W 123°20'4 3.9
2014-Aug-31 17:33N 48°54' W 123°17'9 8.8
2014-Aug-31 16:33N 49°00' W 123°08'8 7.7
2014-Aug-31 15:33N 48°55' W 123°15'7 6.8
2014-Aug-31 14:33N 48°51' W 123°24'2 1.4
2014-Aug-31 13:28N 48°51' W 123°27'0 0.0
2014-Aug-31 10:32N 48°51' W 123°27'1 0.3
2014-Aug-31 05:34N 48°50' W 123°25'1515.0
2014-Aug-31 04:33N 49°00' W 123°08'0 0.2
2014-Aug-31 03:33N 49°00' W 123°08'0 0.0
2014-Aug-31 02:33N 49°00' W 123°08'0 0.0
2014-Aug-31 01:33N 49°00' W 123°08'1010.4
2014-Aug-31 00:34N 48°52' W 123°18'6 5.5
2014-Aug-30 23:29N 48°51' W 123°27'0 0.0
2014-Aug-30 21:29N 48°51' W 123°27'5 4.8
2014-Aug-30 20:34N 48°52' W 123°20'1211.8
2014-Aug-30 19:33N 49°00' W 123°08'7 7.0
2014-Aug-30 18:33N 48°55' W 123°14'5 5.1
2014-Aug-30 17:29N 48°51' W 123°20'4 4.0
2014-Aug-30 16:33N 48°54' W 123°17'9 8.9
2014-Aug-30 15:33N 49°00' W 123°08'3 3.4
2014-Aug-30 14:33N 48°58' W 123°10'12 5.6
2014-Aug-30 12:21N 48°51' W 123°27'3 0.4
2014-Aug-30 05:33N 48°49' W 123°24'3 3.5
2014-Aug-30 04:33N 48°51' W 123°20'1212.1
2014-Aug-30 03:34N 49°00' W 123°08'0 0.2
2014-Aug-30 02:33N 49°00' W 123°08'1212.0
2014-Aug-30 01:32N 48°51' W 123°20'2 2.0
2014-Aug-30 00:33N 48°53' W 123°19'1110.7
2014-Aug-29 23:33N 49°00' W 123°08'0 0.1
2014-Aug-29 22:33N 49°00' W 123°08'1514.9
2014-Aug-29 21:33N 48°50' W 123°25'1 0.7
2014-Aug-29 20:33N 48°50' W 123°25'4 2.8
2014-Aug-29 19:16N 48°51' W 123°20'2 2.7
2014-Aug-29 18:33N 48°53' W 123°19'1110.7
2014-Aug-29 17:33N 49°00' W 123°08'0 0.0
2014-Aug-29 16:33N 49°00' W 123°08'1110.6
2014-Aug-29 15:33N 48°53' W 123°19'2 2.0
2014-Aug-29 14:33N 48°51' W 123°20'3 3.5
2014-Aug-29 13:33N 48°50' W 123°25'1 0.9
2014-Aug-29 12:07N 48°51' W 123°27'0 0.0
2014-Aug-29 06:31N 48°51' W 123°27'1 1.2
2014-Aug-29 05:32N 48°50' W 123°25'4 3.3
2014-Aug-29 04:21N 48°51' W 123°20'3 3.2
2014-Aug-29 03:33N 48°53' W 123°18'1010.0
2014-Aug-29 02:33N 49°00' W 123°08'0 0.1
2014-Aug-29 01:33N 49°00' W 123°08'1110.6
2014-Aug-29 00:34N 48°53' W 123°19'3 2.6
2014-Aug-28 23:33N 48°50' W 123°20'2 0.8
2014-Aug-28 20:27N 48°48' W 123°19'3 3.0
2014-Aug-28 19:32N 48°51' W 123°20'5 5.6
2014-Aug-28 18:33N 48°55' W 123°15'7 7.1
2014-Aug-28 17:33N 49°00' W 123°08'0 0.0
2014-Aug-28 16:34N 49°00' W 123°08'1110.7
2014-Aug-28 15:33N 48°53' W 123°19'2 2.4
2014-Aug-28 14:33N 48°50' W 123°20'3 0.4
2014-Aug-28 05:30N 48°50' W 123°25'4 4.0
2014-Aug-28 04:33N 48°51' W 123°20'4 3.7
2014-Aug-28 03:33N 48°54' W 123°17'9 8.9
2014-Aug-28 02:33N 49°00' W 123°08'1 0.7
2014-Aug-28 01:34N 48°60' W 123°08'10 9.9
2014-Aug-28 00:33N 48°53' W 123°19'5 1.2
2014-Aug-27 20:31N 48°50' W 123°25'3 3.6
2014-Aug-27 19:33N 48°51' W 123°20'2 2.0
2014-Aug-27 18:33N 48°53' W 123°19'1110.7
2014-Aug-27 17:33N 49°00' W 123°08'0 0.4
2014-Aug-27 16:34N 49°00' W 123°08'1010.3
2014-Aug-27 15:33N 48°53' W 123°19'3 3.0
2014-Aug-27 14:32N 48°50' W 123°20'3 3.0
2014-Aug-27 13:33N 48°50' W 123°25'2 1.5
2014-Aug-27 12:25N 48°51' W 123°27'1 0.2
2014-Aug-27 05:31N 48°50' W 123°25'3 3.5
2014-Aug-27 04:32N 48°51' W 123°20'3 2.6
2014-Aug-27 03:34N 48°53' W 123°18'1010.1
2014-Aug-27 02:33N 49°00' W 123°08'2 2.0
2014-Aug-27 01:33N 48°59' W 123°09'9 8.7
2014-Aug-27 00:33N 48°53' W 123°19'5 1.1
2014-Aug-26 20:20N 48°50' W 123°25'4 5.5
2014-Aug-26 19:33N 48°48' W 123°20'5 4.7
2014-Aug-26 18:33N 48°53' W 123°19'10 9.8
2014-Aug-26 17:33N 48°60' W 123°09'1 0.9
2014-Aug-26 16:33N 49°00' W 123°08'1110.6
2014-Aug-26 15:33N 48°53' W 123°19'2 2.0
2014-Aug-26 14:33N 48°51' W 123°20'3 3.4
2014-Aug-26 13:33N 48°50' W 123°24'2 0.6
2014-Aug-26 09:31N 48°51' W 123°27'3 0.8
2014-Aug-26 05:32N 48°49' W 123°24'3 3.0
2014-Aug-26 04:29N 48°51' W 123°20'8 8.2
2014-Aug-26 03:33N 48°57' W 123°13'5 4.9
2014-Aug-26 02:33N 49°00' W 123°08'6 6.3
2014-Aug-26 01:34N 48°55' W 123°13'6 5.8
2014-Aug-26 00:33N 48°52' W 123°20'4 3.3
2014-Aug-25 23:27N 48°48' W 123°19'6 5.2
2014-Aug-25 22:17N 48°51' W 123°27'0 0.0
2014-Aug-25 21:15N 48°51' W 123°27'0 0.5
2014-Aug-25 20:23N 48°51' W 123°26'5 6.2
2014-Aug-25 19:34N 48°48' W 123°20'5 4.7
2014-Aug-25 18:33N 48°53' W 123°19'1110.8
2014-Aug-25 17:33N 49°00' W 123°08'0 0.0
2014-Aug-25 16:33N 49°00' W 123°08'1110.7
2014-Aug-25 15:33N 48°53' W 123°19'2 1.8
2014-Aug-25 14:29N 48°51' W 123°20'4 3.7
2014-Aug-25 13:33N 48°50' W 123°25'2 0.3
2014-Aug-25 07:16N 48°51' W 123°27'811.7
2014-Aug-25 06:33N 48°55' W 123°16'7 7.4
2014-Aug-25 05:33N 49°00' W 123°08'1110.6
2014-Aug-25 04:33N 48°53' W 123°19'2 2.0
2014-Aug-25 03:33N 48°51' W 123°20'5 5.1
2014-Aug-25 02:34N 48°55' W 123°16'7 7.4
2014-Aug-25 01:33N 49°00' W 123°08'1110.6
2014-Aug-25 00:33N 48°53' W 123°19'5 4.8
2014-Aug-24 23:33N 48°50' W 123°25'2 1.4
2014-Aug-24 22:19N 48°51' W 123°23'1013.5
2014-Aug-24 21:33N 48°58' W 123°11'2 1.8
2014-Aug-24 20:33N 48°59' W 123°09'9 9.2
2014-Aug-24 19:34N 48°53' W 123°18'2 1.5
2014-Aug-24 18:17N 48°51' W 123°20'3 3.8
2014-Aug-24 17:34N 48°53' W 123°18'10 9.7
2014-Aug-24 16:33N 49°00' W 123°08'7 7.0
2014-Aug-24 15:34N 48°55' W 123°14'8 7.8
2014-Aug-24 14:33N 48°51' W 123°25'2 0.2
2014-Aug-24 05:34N 48°51' W 123°22'1312.9
2014-Aug-24 04:33N 49°00' W 123°08'0 0.0
2014-Aug-24 03:33N 49°00' W 123°08'0 0.0
2014-Aug-24 02:33N 49°00' W 123°08'0 0.0
2014-Aug-24 01:33N 49°00' W 123°08'1210.5
2014-Aug-24 00:23N 48°51' W 123°20'  
Track history (hours):
 
Tides and Currents Weather Stations Pressure Air Temp Water Temp Dewpoint Dewpoint Depression Visibility Wind Speed Wind Dir Waves Ship Positions

Queen Of Nanaimo

Last reported at 2014-Sep-02 23:33 UTC. Time now 2014-Sep-03 00:11 UTC.
Position N 48°49' W 123°20'.

Length 130 m; draft 4 m.

Type: Ship. MMSI: 316001254.

Date/timePositionNaut miles runAvg speedWind from/ knotsBaromVisibWave heightAir tempDewpointWater temp
2014-Sep-02 23:33N 48°49' W 123°20'3 3.0
2014-Sep-02 22:33N 48°50' W 123°25'2 0.8
2014-Sep-02 20:20N 48°51' W 123°27'6 7.1
2014-Sep-02 19:29N 48°48' W 123°19'4 4.7
2014-Sep-02 18:33N 48°52' W 123°18'9 8.8
2014-Sep-02 17:33N 48°59' W 123°10'2 1.9
2014-Sep-02 16:33N 49°00' W 123°08'1110.6
2014-Sep-02 15:33N 48°53' W 123°19'3 3.2
2014-Sep-02 14:33N 48°50' W 123°20'4 3.9
2014-Sep-02 13:27N 48°51' W 123°26'1 0.1
2014-Sep-02 07:06N 48°51' W 123°25'713.9
2014-Sep-02 06:33N 48°54' W 123°16'8 7.9
2014-Sep-02 05:34N 49°00' W 123°08'1010.4
2014-Sep-02 04:34N 48°53' W 123°18'2 2.1
2014-Sep-02 03:34N 48°51' W 123°20'4 4.0
2014-Sep-02 02:33N 48°54' W 123°16'8 8.4
2014-Sep-02 01:34N 49°00' W 123°08'10 9.6
2014-Sep-02 00:33N 48°53' W 123°18'5 4.6
2014-Sep-01 23:32N 48°51' W 123°24'1 1.1
2014-Sep-01 22:30N 48°51' W 123°25'1314.0
2014-Sep-01 21:33N 48°59' W 123°10'2 1.7
2014-Sep-01 20:34N 48°57' W 123°09'8 7.8
2014-Sep-01 19:33N 48°53' W 123°19'2 1.8
2014-Sep-01 18:28N 48°51' W 123°20'7 7.8
2014-Sep-01 17:34N 48°57' W 123°14'6 5.6
2014-Sep-01 16:33N 49°00' W 123°08'1110.7
2014-Sep-01 15:34N 48°53' W 123°19'5 4.5
2014-Sep-01 14:22N 48°51' W 123°27'0 0.0
2014-Sep-01 08:29N 48°51' W 123°27'0 0.0
2014-Sep-01 07:31N 48°51' W 123°27'5 4.9
2014-Sep-01 06:33N 48°52' W 123°20'1211.8
2014-Sep-01 05:34N 49°00' W 123°08'9 9.1
2014-Sep-01 04:34N 48°54' W 123°17'3 3.1
2014-Sep-01 03:30N 48°51' W 123°20'4 4.3
2014-Sep-01 02:33N 48°54' W 123°17'8 8.4
2014-Sep-01 01:33N 49°00' W 123°08'10 9.7
2014-Sep-01 00:34N 48°53' W 123°18'5 5.3
2014-Aug-31 23:33N 48°51' W 123°25'0 0.4
2014-Aug-31 22:15N 48°51' W 123°25'1013.9
2014-Aug-31 21:33N 48°57' W 123°14'5 5.0
2014-Aug-31 20:33N 48°60' W 123°08'1010.1
2014-Aug-31 19:34N 48°53' W 123°19'2 1.8
2014-Aug-31 18:30N 48°51' W 123°20'4 3.9
2014-Aug-31 17:33N 48°54' W 123°17'9 8.8
2014-Aug-31 16:33N 49°00' W 123°08'8 7.7
2014-Aug-31 15:33N 48°55' W 123°15'7 6.8
2014-Aug-31 14:33N 48°51' W 123°24'2 1.4
2014-Aug-31 13:28N 48°51' W 123°27'0 0.0
2014-Aug-31 10:32N 48°51' W 123°27'1 0.3
2014-Aug-31 05:34N 48°50' W 123°25'1515.0
2014-Aug-31 04:33N 49°00' W 123°08'0 0.2
2014-Aug-31 03:33N 49°00' W 123°08'0 0.0
2014-Aug-31 02:33N 49°00' W 123°08'0 0.0
2014-Aug-31 01:33N 49°00' W 123°08'1010.4
2014-Aug-31 00:34N 48°52' W 123°18'6 5.5
2014-Aug-30 23:29N 48°51' W 123°27'0 0.0
2014-Aug-30 21:29N 48°51' W 123°27'5 4.8
2014-Aug-30 20:34N 48°52' W 123°20'1211.8
2014-Aug-30 19:33N 49°00' W 123°08'7 7.0
2014-Aug-30 18:33N 48°55' W 123°14'5 5.1
2014-Aug-30 17:29N 48°51' W 123°20'4 4.0
2014-Aug-30 16:33N 48°54' W 123°17'9 8.9
2014-Aug-30 15:33N 49°00' W 123°08'3 3.4
2014-Aug-30 14:33N 48°58' W 123°10'12 5.6
2014-Aug-30 12:21N 48°51' W 123°27'3 0.4
2014-Aug-30 05:33N 48°49' W 123°24'3 3.5
2014-Aug-30 04:33N 48°51' W 123°20'1212.1
2014-Aug-30 03:34N 49°00' W 123°08'0 0.2
2014-Aug-30 02:33N 49°00' W 123°08'1212.0
2014-Aug-30 01:32N 48°51' W 123°20'2 2.0
2014-Aug-30 00:33N 48°53' W 123°19'1110.7
2014-Aug-29 23:33N 49°00' W 123°08'0 0.1
2014-Aug-29 22:33N 49°00' W 123°08'1514.9
2014-Aug-29 21:33N 48°50' W 123°25'1 0.7
2014-Aug-29 20:33N 48°50' W 123°25'4 2.8
2014-Aug-29 19:16N 48°51' W 123°20'2 2.7
2014-Aug-29 18:33N 48°53' W 123°19'1110.7
2014-Aug-29 17:33N 49°00' W 123°08'0 0.0
2014-Aug-29 16:33N 49°00' W 123°08'1110.6
2014-Aug-29 15:33N 48°53' W 123°19'2 2.0
2014-Aug-29 14:33N 48°51' W 123°20'3 3.5
2014-Aug-29 13:33N 48°50' W 123°25'1 0.9
2014-Aug-29 12:07N 48°51' W 123°27'0 0.0
2014-Aug-29 06:31N 48°51' W 123°27'1 1.2
2014-Aug-29 05:32N 48°50' W 123°25'4 3.3
2014-Aug-29 04:21N 48°51' W 123°20'3 3.2
2014-Aug-29 03:33N 48°53' W 123°18'1010.0
2014-Aug-29 02:33N 49°00' W 123°08'0 0.1
2014-Aug-29 01:33N 49°00' W 123°08'1110.6
2014-Aug-29 00:34N 48°53' W 123°19'3 2.6
2014-Aug-28 23:33N 48°50' W 123°20'2 0.8
2014-Aug-28 20:27N 48°48' W 123°19'3 3.0
2014-Aug-28 19:32N 48°51' W 123°20'5 5.6
2014-Aug-28 18:33N 48°55' W 123°15'7 7.1
2014-Aug-28 17:33N 49°00' W 123°08'0 0.0
2014-Aug-28 16:34N 49°00' W 123°08'1110.7
2014-Aug-28 15:33N 48°53' W 123°19'2 2.4
2014-Aug-28 14:33N 48°50' W 123°20'3 0.4
2014-Aug-28 05:30N 48°50' W 123°25'4 4.0
2014-Aug-28 04:33N 48°51' W 123°20'4 3.7
2014-Aug-28 03:33N 48°54' W 123°17'9 8.9
2014-Aug-28 02:33N 49°00' W 123°08'1 0.7
2014-Aug-28 01:34N 48°60' W 123°08'10 9.9
2014-Aug-28 00:33N 48°53' W 123°19'5 1.2
2014-Aug-27 20:31N 48°50' W 123°25'3 3.6
2014-Aug-27 19:33N 48°51' W 123°20'2 2.0
2014-Aug-27 18:33N 48°53' W 123°19'1110.7
2014-Aug-27 17:33N 49°00' W 123°08'0 0.4
2014-Aug-27 16:34N 49°00' W 123°08'1010.3
2014-Aug-27 15:33N 48°53' W 123°19'3 3.0
2014-Aug-27 14:32N 48°50' W 123°20'3 3.0
2014-Aug-27 13:33N 48°50' W 123°25'2 1.5
2014-Aug-27 12:25N 48°51' W 123°27'1 0.2
2014-Aug-27 05:31N 48°50' W 123°25'3 3.5
2014-Aug-27 04:32N 48°51' W 123°20'3 2.6
2014-Aug-27 03:34N 48°53' W 123°18'1010.1
2014-Aug-27 02:33N 49°00' W 123°08'2 2.0
2014-Aug-27 01:33N 48°59' W 123°09'9 8.7
2014-Aug-27 00:33N 48°53' W 123°19'5 1.1
2014-Aug-26 20:20N 48°50' W 123°25'4 5.5
2014-Aug-26 19:33N 48°48' W 123°20'5 4.7
2014-Aug-26 18:33N 48°53' W 123°19'10 9.8
2014-Aug-26 17:33N 48°60' W 123°09'1 0.9
2014-Aug-26 16:33N 49°00' W 123°08'1110.6
2014-Aug-26 15:33N 48°53' W 123°19'2 2.0
2014-Aug-26 14:33N 48°51' W 123°20'3 3.4
2014-Aug-26 13:33N 48°50' W 123°24'2 0.6
2014-Aug-26 09:31N 48°51' W 123°27'3 0.8
2014-Aug-26 05:32N 48°49' W 123°24'3 3.0
2014-Aug-26 04:29N 48°51' W 123°20'8 8.2
2014-Aug-26 03:33N 48°57' W 123°13'5 4.9
2014-Aug-26 02:33N 49°00' W 123°08'6 6.3
2014-Aug-26 01:34N 48°55' W 123°13'6 5.8
2014-Aug-26 00:33N 48°52' W 123°20'4 3.3
2014-Aug-25 23:27N 48°48' W 123°19'6 5.2
2014-Aug-25 22:17N 48°51' W 123°27'0 0.0
2014-Aug-25 21:15N 48°51' W 123°27'0 0.5
2014-Aug-25 20:23N 48°51' W 123°26'5 6.2
2014-Aug-25 19:34N 48°48' W 123°20'5 4.7
2014-Aug-25 18:33N 48°53' W 123°19'1110.8
2014-Aug-25 17:33N 49°00' W 123°08'0 0.0
2014-Aug-25 16:33N 49°00' W 123°08'1110.7
2014-Aug-25 15:33N 48°53' W 123°19'2 1.8
2014-Aug-25 14:29N 48°51' W 123°20'4 3.7
2014-Aug-25 13:33N 48°50' W 123°25'2 0.3
2014-Aug-25 07:16N 48°51' W 123°27'811.7
2014-Aug-25 06:33N 48°55' W 123°16'7 7.4
2014-Aug-25 05:33N 49°00' W 123°08'1110.6
2014-Aug-25 04:33N 48°53' W 123°19'2 2.0
2014-Aug-25 03:33N 48°51' W 123°20'5 5.1
2014-Aug-25 02:34N 48°55' W 123°16'7 7.4
2014-Aug-25 01:33N 49°00' W 123°08'1110.6
2014-Aug-25 00:33N 48°53' W 123°19'5 4.8
2014-Aug-24 23:33N 48°50' W 123°25'2 1.4
2014-Aug-24 22:19N 48°51' W 123°23'1013.5
2014-Aug-24 21:33N 48°58' W 123°11'2 1.8
2014-Aug-24 20:33N 48°59' W 123°09'9 9.2
2014-Aug-24 19:34N 48°53' W 123°18'2 1.5
2014-Aug-24 18:17N 48°51' W 123°20'3 3.8
2014-Aug-24 17:34N 48°53' W 123°18'10 9.7
2014-Aug-24 16:33N 49°00' W 123°08'7 7.0
2014-Aug-24 15:34N 48°55' W 123°14'8 7.8
2014-Aug-24 14:33N 48°51' W 123°25'2 0.2
2014-Aug-24 05:34N 48°51' W 123°22'1312.9
2014-Aug-24 04:33N 49°00' W 123°08'0 0.0
2014-Aug-24 03:33N 49°00' W 123°08'0 0.0
2014-Aug-24 02:33N 49°00' W 123°08'0 0.0
2014-Aug-24 01:33N 49°00' W 123°08'1210.5
2014-Aug-24 00:23N 48°51' W 123°20'  

Dump ship's entire track history